San Bernardino, CA (92407)

10:53 PM PDT on July 24, 2016 (GMT -0700)
Bob's Weather | | Change Station

Elev 1762 ft 34.20 °N, 117.34 °W | Updated 46 seconds ago

Clear
Clear
76.3 °F
Feels Like 77 °F
N
0.0
Wind Variable Wind from NNW

Today
High -- | Low -- °F
--% Chance of Precip.
Yesterday
High -- | Low -- °F
Precip. -- in
Pressure 29.94 in
Visibility 10.0 miles
Clouds Clear
Heat Index 77 °F
Dew Point 40 °F
Humidity 27%
Rainfall 0.49 in
Snow Depth Not available.
5:55 AM 7:56 PM
Waning Gibbous, 69% visible
METAR KSBD 250534Z AUTO 27005KT 10SM CLR 30/07 A2994 RMK AO2 T02990074
Pressure 29.94 in
Visibility 10.0 miles
Clouds Clear
Heat Index 77 °F
Dew Point 40 °F
Humidity 27%
Rainfall 0.49 in
Snow Depth Not available.
5:55 AM 7:56 PM
Waning Gibbous, 69% visible
METAR KSBD 250534Z AUTO 27005KT 10SM CLR 30/07 A2994 RMK AO2 T02990074

10-Day Weather Forecast

Almanac

Astronomy

Jul. 24, 2016 Rise Set
Actual Time
Civil Twilight
Nautical Twilight
Astronomical Twilight
Moon
Length of Visible Light
Length of Day
Tomorrow will be .
, % of the Moon is Illuminated

Today's Extremes

State Highs State Lows

Community

WunderPhotos

Upload Photos

1,927,274 photos uploaded!

WunderBlog® & News

Nearby

Air Quality

  Air Quality AQ Index Pollutant
Not available.

Snow Depth

Station Depth Elevation

Earthquake Activity

City Distance Mag. Time & Date
Minimum magnitude displayed is 2.5.

Coastal Water Temperatures

Place Temperature

Stations

Nearby Weather Stations

Station Location Temp. Windchill Dew Point Humidity Wind Precip. Elev Updated Type
                   

Watches & Warnings

There are currently no watches in effect.